weather.gov     
National Weather Service

Terminal Aerodrome Forecast
NWS Homepage
This page is being discontinued on March 12, 2014.
The same data is available at this site. Please update your bookmarks.
Thank you, and we apologize for the inconvenience.
Please send an email to SR-SRH.Webmaster@noaa.gov with any concerns.


Current Version
Previous Version:    01  02  03  04  05  06  07  08  09  10  11  12  13  14  15  16  17  18  19  20  21  22  23  24  25  26  27  28  29  30  
   31  32  33  34  35  36  37  
[Printable]
977
FTUS46 KOTX 240538
TAFSFF
TAF
KSFF 240538Z 2406/2506 11005KT P6SM OVC030
     FM240700 12005KT P6SM -RA SCT020 OVC030
     FM241000 17008KT P6SM -RA BKN018 OVC030
      TEMPO 2415/2418 4SM RA BR BKN010 OVC018
     FM241800 22012G20KT P6SM -SHRA BKN035 BKN050
     FM242100 22013G22KT P6SM -SHRA VCTS SCT050CB BKN080
     FM250200 22008KT P6SM BKN060=




977
FTUS46 KOTX 240538
TAFSFF
TAF
KSFF 240538Z 2406/2506 11005KT P6SM OVC030
     FM240700 12005KT P6SM -RA SCT020 OVC030
     FM241000 17008KT P6SM -RA BKN018 OVC030
      TEMPO 2415/2418 4SM RA BR BKN010 OVC018
     FM241800 22012G20KT P6SM -SHRA BKN035 BKN050
     FM242100 22013G22KT P6SM -SHRA VCTS SCT050CB BKN080
     FM250200 22008KT P6SM BKN060=


U.S. Dept. of Commerce
NOAA National Weather Service
1325 East West Highway
Silver Spring, MD 20910
E-mail: w-nws.webmaster@noaa.gov
Page last modified: May 16, 2007
NATIONAL WEATHER SERVICE: for Safety, for Work, for Fun - FOR LIFE